Time,TemperatureF,DewpointF,PressureIn,WindDirection,WindDirectionDegrees,WindSpeedMPH,WindSpeedGustMPH,Humidity,HourlyPrecipIn,Conditions,Clouds,dailyrainin,SoftwareType,DateUTC
2013-02-11 00:04:00,41.2,36.1,30.06,ENE,68,0.0,1.1,82,0.00,,,0.00,WUHU216HW,2013-02-11 08:04:00,
2013-02-11 00:09:00,41.0,36.2,30.06,ENE,68,0.0,0.9,83,0.00,,,0.00,WUHU216HW,2013-02-11 08:09:00,
2013-02-11 00:14:00,40.9,35.7,30.06,ENE,68,0.0,0.0,82,0.00,,,0.00,WUHU216HW,2013-02-11 08:14:00,
2013-02-11 00:19:00,40.7,35.6,30.06,East,90,0.4,0.9,82,0.00,,,0.00,WUHU216HW,2013-02-11 08:19:00,
2013-02-11 00:24:00,40.7,35.8,30.06,ENE,68,0.9,1.1,83,0.00,,,0.00,WUHU216HW,2013-02-11 08:24:00,
2013-02-11 00:29:00,40.5,36.0,30.06,ENE,68,0.9,1.1,84,0.00,,,0.00,WUHU216HW,2013-02-11 08:29:00,
2013-02-11 00:34:00,40.5,36.0,30.06,ENE,68,0.9,0.9,84,0.00,,,0.00,WUHU216HW,2013-02-11 08:34:00,
2013-02-11 00:39:00,40.3,36.1,30.06,ENE,68,0.4,0.9,85,0.00,,,0.00,WUHU216HW,2013-02-11 08:39:00,
2013-02-11 00:44:00,40.0,35.5,30.06,ENE,68,0.0,0.9,84,0.00,,,0.00,WUHU216HW,2013-02-11 08:44:00,
2013-02-11 00:49:00,39.8,35.3,30.06,ENE,68,0.0,0.4,84,0.00,,,0.00,WUHU216HW,2013-02-11 08:49:00,
2013-02-11 00:54:00,39.6,35.2,30.06,ENE,68,0.0,0.0,84,0.00,,,0.00,WUHU216HW,2013-02-11 08:54:00,
2013-02-11 00:59:00,39.8,35.9,30.05,ENE,68,0.7,0.9,86,0.00,,,0.00,WUHU216HW,2013-02-11 08:59:00,
2013-02-11 01:04:00,40.1,36.3,30.06,ENE,68,0.4,1.1,86,0.00,,,0.00,WUHU216HW,2013-02-11 09:04:00,
2013-02-11 01:09:00,40.0,36.1,30.06,ENE,68,0.0,1.1,86,0.00,,,0.00,WUHU216HW,2013-02-11 09:09:00,
2013-02-11 01:14:00,39.8,35.7,30.06,ENE,68,0.0,0.4,85,0.00,,,0.00,WUHU216HW,2013-02-11 09:14:00,
2013-02-11 01:19:00,39.2,35.1,30.06,ENE,68,0.0,0.0,85,0.00,,,0.00,WUHU216HW,2013-02-11 09:19:00,
2013-02-11 01:24:00,39.2,35.4,30.06,ENE,68,0.0,0.0,86,0.00,,,0.00,WUHU216HW,2013-02-11 09:24:00,
2013-02-11 01:29:00,39.4,35.6,30.06,ENE,68,0.0,0.4,86,0.00,,,0.00,WUHU216HW,2013-02-11 09:29:00,
2013-02-11 01:34:00,39.4,35.6,30.06,SE,135,1.1,1.1,86,0.00,,,0.00,WUHU216HW,2013-02-11 09:34:00,
2013-02-11 01:39:00,39.8,36.2,30.07,SSW,203,0.4,2.5,87,0.00,,,0.00,WUHU216HW,2013-02-11 09:39:00,
2013-02-11 01:44:00,39.6,35.7,30.06,SSW,203,0.0,2.5,86,0.00,,,0.00,WUHU216HW,2013-02-11 09:44:00,
2013-02-11 01:49:00,39.2,35.4,30.06,SSW,203,0.0,0.4,86,0.00,,,0.00,WUHU216HW,2013-02-11 09:49:00,
2013-02-11 01:54:00,39.1,35.2,30.06,South,180,1.1,1.1,86,0.00,,,0.00,WUHU216HW,2013-02-11 09:54:00,
2013-02-11 01:59:00,38.9,35.3,30.07,SSE,158,0.4,1.1,87,0.00,,,0.00,WUHU216HW,2013-02-11 09:59:00,
2013-02-11 02:04:00,38.5,34.9,30.07,SSE,158,0.4,1.1,87,0.00,,,0.00,WUHU216HW,2013-02-11 10:04:00,
2013-02-11 02:09:00,38.5,34.9,30.07,SSE,158,0.0,0.9,87,0.00,,,0.00,WUHU216HW,2013-02-11 10:09:00,
2013-02-11 02:14:00,38.5,34.9,30.07,SSE,158,0.4,0.4,87,0.00,,,0.00,WUHU216HW,2013-02-11 10:14:00,
2013-02-11 02:19:00,38.5,35.3,30.07,SSE,158,1.1,1.1,88,0.00,,,0.00,WUHU216HW,2013-02-11 10:19:00,
2013-02-11 02:24:00,38.5,35.3,30.07,SSE,158,0.4,1.1,88,0.00,,,0.00,WUHU216HW,2013-02-11 10:24:00,
2013-02-11 02:29:00,38.5,35.3,30.07,SSE,158,0.0,1.1,88,0.00,,,0.00,WUHU216HW,2013-02-11 10:29:00,
2013-02-11 02:34:00,38.2,34.9,30.07,SSE,158,0.7,0.7,88,0.00,,,0.00,WUHU216HW,2013-02-11 10:34:00,
2013-02-11 02:39:00,38.0,34.8,30.07,SSE,158,0.0,1.1,88,0.00,,,0.00,WUHU216HW,2013-02-11 10:39:00,
2013-02-11 02:44:00,37.8,34.6,30.07,SSE,158,0.0,1.1,88,0.00,,,0.00,WUHU216HW,2013-02-11 10:44:00,
2013-02-11 02:49:00,37.6,34.4,30.07,SSE,158,0.0,0.4,88,0.00,,,0.00,WUHU216HW,2013-02-11 10:49:00,
2013-02-11 02:54:00,37.4,34.2,30.07,SSE,158,0.0,0.2,88,0.00,,,0.00,WUHU216HW,2013-02-11 10:54:00,
2013-02-11 02:59:00,37.8,34.8,30.07,ENE,68,0.0,0.4,89,0.00,,,0.00,WUHU216HW,2013-02-11 10:59:00,
2013-02-11 03:04:00,37.8,35.1,30.07,ENE,68,0.9,0.9,90,0.00,,,0.00,WUHU216HW,2013-02-11 11:04:00,
2013-02-11 03:09:00,37.8,34.8,30.07,ENE,68,0.7,0.9,89,0.00,,,0.00,WUHU216HW,2013-02-11 11:09:00,
2013-02-11 03:14:00,37.4,34.5,30.07,ENE,68,0.2,1.3,89,0.00,,,0.00,WUHU216HW,2013-02-11 11:14:00,
2013-02-11 03:19:00,37.1,33.9,30.07,ENE,68,0.7,1.3,88,0.00,,,0.00,WUHU216HW,2013-02-11 11:19:00,
2013-02-11 03:24:00,37.1,33.9,30.07,East,90,0.2,0.9,88,0.00,,,0.00,WUHU216HW,2013-02-11 11:24:00,
2013-02-11 03:29:00,36.9,33.7,30.07,East,90,0.0,0.7,88,0.00,,,0.00,WUHU216HW,2013-02-11 11:29:00,
2013-02-11 03:34:00,36.9,33.7,30.07,East,90,0.0,1.1,88,0.00,,,0.00,WUHU216HW,2013-02-11 11:34:00,
2013-02-11 03:39:00,37.1,33.9,30.07,East,90,0.9,1.1,88,0.00,,,0.00,WUHU216HW,2013-02-11 11:39:00,
2013-02-11 03:44:00,37.8,35.1,30.07,South,180,1.8,2.2,90,0.00,,,0.00,WUHU216HW,2013-02-11 11:44:00,
2013-02-11 03:49:00,37.6,34.9,30.07,SSE,158,1.1,2.5,90,0.00,,,0.00,WUHU216HW,2013-02-11 11:49:00,
2013-02-11 03:54:00,37.4,34.7,30.07,SSE,158,0.4,2.5,90,0.00,,,0.00,WUHU216HW,2013-02-11 11:54:00,
2013-02-11 03:59:00,37.3,34.3,30.07,SSE,158,0.0,1.1,89,0.00,,,0.00,WUHU216HW,2013-02-11 11:59:00,
2013-02-11 04:04:00,37.1,33.9,30.07,SSE,158,0.0,0.4,88,0.00,,,0.00,WUHU216HW,2013-02-11 12:04:00,
2013-02-11 04:09:00,37.3,34.3,30.07,SSE,158,1.1,1.1,89,0.00,,,0.00,WUHU216HW,2013-02-11 12:09:00,
2013-02-11 04:14:00,37.3,34.3,30.07,SSE,158,0.0,1.1,89,0.00,,,0.00,WUHU216HW,2013-02-11 12:14:00,
2013-02-11 04:19:00,37.1,34.1,30.07,SSE,158,0.9,1.1,89,0.00,,,0.00,WUHU216HW,2013-02-11 12:19:00,
2013-02-11 04:24:00,36.9,33.9,30.07,SSE,158,0.4,0.9,89,0.00,,,0.00,WUHU216HW,2013-02-11 12:24:00,
2013-02-11 04:29:00,36.7,33.8,30.07,SE,135,0.4,1.1,89,0.00,,,0.00,WUHU216HW,2013-02-11 12:29:00,
2013-02-11 04:34:00,36.5,33.6,30.07,SE,135,0.0,1.1,89,0.00,,,0.00,WUHU216HW,2013-02-11 12:34:00,
2013-02-11 04:39:00,36.2,33.2,30.07,SSE,158,0.4,0.9,89,0.00,,,0.00,WUHU216HW,2013-02-11 12:39:00,
2013-02-11 04:44:00,36.4,33.4,30.08,SSE,158,0.0,0.9,89,0.00,,,0.00,WUHU216HW,2013-02-11 12:44:00,
2013-02-11 04:49:00,36.7,33.8,30.08,NE,45,0.2,1.1,89,0.00,,,0.00,WUHU216HW,2013-02-11 12:49:00,
2013-02-11 04:54:00,36.7,33.8,30.07,North,0,0.0,1.1,89,0.00,,,0.00,WUHU216HW,2013-02-11 12:54:00,
2013-02-11 04:59:00,36.7,34.0,30.08,North,0,0.0,1.1,90,0.00,,,0.00,WUHU216HW,2013-02-11 12:59:00,
2013-02-11 05:04:00,36.5,33.8,30.08,North,0,0.0,0.0,90,0.00,,,0.00,WUHU216HW,2013-02-11 13:04:00,
2013-02-11 05:09:00,36.4,33.4,30.08,North,0,0.0,0.0,89,0.00,,,0.00,WUHU216HW,2013-02-11 13:09:00,
2013-02-11 05:14:00,36.4,33.4,30.08,ESE,113,0.7,1.1,89,0.00,,,0.00,WUHU216HW,2013-02-11 13:14:00,
2013-02-11 05:19:00,36.4,33.4,30.08,ESE,113,0.0,1.1,89,0.00,,,0.00,WUHU216HW,2013-02-11 13:19:00,
2013-02-11 05:25:00,36.4,33.7,30.08,East,90,0.0,0.9,90,0.00,,,0.00,WUHU216HW,2013-02-11 13:25:00,
2013-02-11 05:30:00,36.4,33.4,30.08,East,90,0.0,0.7,89,0.00,,,0.00,WUHU216HW,2013-02-11 13:30:00,
2013-02-11 05:35:00,36.2,33.2,30.08,ESE,113,0.2,0.7,89,0.00,,,0.00,WUHU216HW,2013-02-11 13:35:00,
2013-02-11 05:40:00,35.8,33.1,30.08,ESE,113,0.0,0.9,90,0.00,,,0.00,WUHU216HW,2013-02-11 13:40:00,
2013-02-11 05:45:00,35.6,32.7,30.09,ESE,113,0.7,0.9,89,0.00,,,0.00,WUHU216HW,2013-02-11 13:45:00,
2013-02-11 05:50:00,35.5,32.5,30.09,ESE,113,0.4,0.7,89,0.00,,,0.00,WUHU216HW,2013-02-11 13:50:00,
2013-02-11 05:55:00,35.5,32.8,30.09,ESE,113,0.0,0.7,90,0.00,,,0.00,WUHU216HW,2013-02-11 13:55:00,
2013-02-11 06:00:00,35.6,32.9,30.09,East,90,0.7,1.1,90,0.00,,,0.00,WUHU216HW,2013-02-11 14:00:00,
2013-02-11 06:05:00,35.6,32.9,30.09,East,90,0.9,1.1,90,0.00,,,0.00,WUHU216HW,2013-02-11 14:05:00,
2013-02-11 06:10:00,35.6,32.9,30.09,East,90,0.0,0.9,90,0.00,,,0.00,WUHU216HW,2013-02-11 14:10:00,
2013-02-11 06:15:00,35.8,33.4,30.10,East,90,0.7,1.1,91,0.00,,,0.00,WUHU216HW,2013-02-11 14:15:00,
2013-02-11 06:20:00,35.8,33.4,30.10,East,90,0.2,1.1,91,0.00,,,0.00,WUHU216HW,2013-02-11 14:20:00,
2013-02-11 06:25:00,35.8,33.4,30.10,East,90,0.0,0.4,91,0.00,,,0.00,WUHU216HW,2013-02-11 14:25:00,
2013-02-11 06:30:00,35.6,33.2,30.11,NE,45,0.0,0.2,91,0.00,,,0.00,WUHU216HW,2013-02-11 14:30:00,
2013-02-11 06:35:00,35.5,33.0,30.11,NE,45,0.0,0.2,91,0.00,,,0.00,WUHU216HW,2013-02-11 14:35:00,
2013-02-11 06:40:00,35.3,32.9,30.11,NE,45,0.4,0.4,91,0.00,,,0.00,WUHU216HW,2013-02-11 14:40:00,
2013-02-11 06:45:00,35.5,33.0,30.11,ENE,68,0.4,0.9,91,0.00,,,0.00,WUHU216HW,2013-02-11 14:45:00,
2013-02-11 06:50:00,35.3,32.9,30.11,East,90,0.0,0.9,91,0.00,,,0.00,WUHU216HW,2013-02-11 14:50:00,
2013-02-11 06:55:00,35.5,33.0,30.11,East,90,0.4,0.9,91,0.00,,,0.00,WUHU216HW,2013-02-11 14:55:00,
2013-02-11 07:00:00,35.6,33.2,30.12,East,90,0.4,0.9,91,0.00,,,0.00,WUHU216HW,2013-02-11 15:00:00,
2013-02-11 07:05:00,35.6,33.5,30.12,East,90,0.4,1.1,92,0.00,,,0.00,WUHU216HW,2013-02-11 15:05:00,
2013-02-11 07:10:00,35.6,33.5,30.12,East,90,0.4,1.1,92,0.00,,,0.00,WUHU216HW,2013-02-11 15:10:00,
2013-02-11 07:15:00,35.5,33.3,30.12,East,90,0.0,0.9,92,0.00,,,0.00,WUHU216HW,2013-02-11 15:15:00,
2013-02-11 07:20:00,35.5,33.3,30.13,East,90,0.0,0.4,92,0.00,,,0.00,WUHU216HW,2013-02-11 15:20:00,
2013-02-11 07:25:00,35.6,33.5,30.13,ESE,113,0.4,0.4,92,0.00,,,0.00,WUHU216HW,2013-02-11 15:25:00,
2013-02-11 07:30:00,36.0,33.8,30.13,SSE,158,0.7,1.8,92,0.00,,,0.00,WUHU216HW,2013-02-11 15:30:00,
2013-02-11 07:35:00,36.0,33.8,30.13,SE,135,0.4,1.8,92,0.00,,,0.00,WUHU216HW,2013-02-11 15:35:00,
2013-02-11 07:40:00,36.2,34.0,30.13,ESE,113,0.4,1.3,92,0.00,,,0.00,WUHU216HW,2013-02-11 15:40:00,
2013-02-11 07:45:00,36.4,34.2,30.14,ESE,113,0.0,1.1,92,0.00,,,0.00,WUHU216HW,2013-02-11 15:45:00,
2013-02-11 07:50:00,36.7,34.6,30.14,ESE,113,0.4,1.1,92,0.00,,,0.00,WUHU216HW,2013-02-11 15:50:00,
2013-02-11 07:55:00,37.1,34.9,30.14,ENE,68,0.0,1.1,92,0.00,,,0.00,WUHU216HW,2013-02-11 15:55:00,
2013-02-11 08:00:00,37.6,35.5,30.14,ENE,68,0.0,1.1,92,0.00,,,0.00,WUHU216HW,2013-02-11 16:00:00,
2013-02-11 08:05:00,37.8,35.6,30.15,East,90,0.2,1.3,92,0.00,,,0.00,WUHU216HW,2013-02-11 16:05:00,
2013-02-11 08:10:00,38.2,36.0,30.15,ENE,68,0.0,1.3,92,0.00,,,0.00,WUHU216HW,2013-02-11 16:10:00,
2013-02-11 08:15:00,38.3,36.2,30.15,ESE,113,0.9,0.9,92,0.00,,,0.00,WUHU216HW,2013-02-11 16:15:00,
2013-02-11 08:20:00,38.7,36.3,30.16,ESE,113,2.2,2.2,91,0.00,,,0.00,WUHU216HW,2013-02-11 16:20:00,
2013-02-11 08:25:00,39.2,36.8,30.16,ESE,113,0.4,2.2,91,0.00,,,0.00,WUHU216HW,2013-02-11 16:25:00,
2013-02-11 08:30:00,39.6,36.9,30.16,SE,135,1.1,2.2,90,0.00,,,0.00,WUHU216HW,2013-02-11 16:30:00,
2013-02-11 08:35:00,40.0,36.6,30.16,ESE,113,0.0,1.6,88,0.00,,,0.00,WUHU216HW,2013-02-11 16:35:00,
2013-02-11 08:40:00,40.7,37.1,30.16,SE,135,0.7,1.8,87,0.00,,,0.00,WUHU216HW,2013-02-11 16:40:00,
2013-02-11 08:45:00,41.4,37.4,30.16,SE,135,1.8,1.8,86,0.00,,,0.00,WUHU216HW,2013-02-11 16:45:00,
2013-02-11 08:50:00,42.1,37.9,30.16,ESE,113,0.4,2.5,85,0.00,,,0.00,WUHU216HW,2013-02-11 16:50:00,
2013-02-11 08:55:00,43.0,38.8,30.16,ENE,68,1.3,2.5,85,0.00,,,0.00,WUHU216HW,2013-02-11 16:55:00,
2013-02-11 09:00:00,43.7,39.5,30.16,East,90,0.7,2.0,85,0.00,,,0.00,WUHU216HW,2013-02-11 17:00:00,
2013-02-11 09:05:00,44.3,39.8,30.16,ESE,113,0.7,1.8,84,0.00,,,0.00,WUHU216HW,2013-02-11 17:05:00,
2013-02-11 09:10:00,45.0,38.9,30.16,South,180,2.2,4.5,79,0.00,,,0.00,WUHU216HW,2013-02-11 17:10:00,
2013-02-11 09:15:00,45.5,39.4,30.16,SSW,203,3.4,4.5,79,0.00,,,0.00,WUHU216HW,2013-02-11 17:15:00,
2013-02-11 09:20:00,46.1,39.3,30.16,SW,225,3.1,6.0,77,0.00,,,0.00,WUHU216HW,2013-02-11 17:20:00,
2013-02-11 09:25:00,46.6,39.5,30.16,SSW,203,2.7,6.0,76,0.00,,,0.00,WUHU216HW,2013-02-11 17:25:00,
2013-02-11 09:30:00,47.2,39.2,30.16,SSW,203,2.9,4.5,74,0.00,,,0.00,WUHU216HW,2013-02-11 17:30:00,
2013-02-11 09:35:00,47.7,39.4,30.16,SSW,203,1.8,4.5,73,0.00,,,0.00,WUHU216HW,2013-02-11 17:35:00,
2013-02-11 09:40:00,49.0,40.3,30.17,SSE,158,2.0,2.9,72,0.00,,,0.00,WUHU216HW,2013-02-11 17:40:00,
2013-02-11 09:45:00,50.2,40.1,30.17,SE,135,1.8,2.5,68,0.00,,,0.00,WUHU216HW,2013-02-11 17:45:00,
2013-02-11 09:50:00,51.3,39.9,30.17,SE,135,0.9,3.1,65,0.00,,,0.00,WUHU216HW,2013-02-11 17:50:00,
2013-02-11 09:55:00,51.8,40.4,30.17,SE,135,0.2,3.1,65,0.00,,,0.00,WUHU216HW,2013-02-11 17:55:00,
2013-02-11 10:00:00,52.4,39.3,30.17,SSE,158,0.7,1.1,61,0.00,,,0.00,WUHU216HW,2013-02-11 18:00:00,
2013-02-11 10:05:00,52.2,39.2,30.18,East,90,0.7,1.8,61,0.00,,,0.00,WUHU216HW,2013-02-11 18:05:00,
2013-02-11 10:10:00,53.6,39.7,30.18,SSE,158,0.2,2.0,59,0.00,,,0.00,WUHU216HW,2013-02-11 18:10:00,
2013-02-11 10:15:00,54.2,39.7,30.18,SSW,203,3.4,3.8,58,0.00,,,0.00,WUHU216HW,2013-02-11 18:15:00,
2013-02-11 10:20:00,54.0,39.1,30.18,SSW,203,2.7,4.7,57,0.00,,,0.00,WUHU216HW,2013-02-11 18:20:00,
2013-02-11 10:25:00,53.8,38.4,30.18,NW,315,0.4,4.7,56,0.00,,,0.00,WUHU216HW,2013-02-11 18:25:00,
2013-02-11 10:30:00,54.4,37.5,30.18,SW,225,2.2,4.0,53,0.00,,,0.00,WUHU216HW,2013-02-11 18:30:00,
2013-02-11 10:35:00,55.3,38.4,30.18,SSE,158,0.4,4.0,53,0.00,,,0.00,WUHU216HW,2013-02-11 18:35:00,
2013-02-11 10:40:00,56.5,39.1,30.18,South,180,0.4,2.7,52,0.00,,,0.00,WUHU216HW,2013-02-11 18:40:00,
2013-02-11 10:45:00,57.1,38.7,30.18,SSW,203,2.5,2.5,50,0.00,,,0.00,WUHU216HW,2013-02-11 18:45:00,
2013-02-11 10:50:00,57.1,38.7,30.18,West,270,0.4,2.7,50,0.00,,,0.00,WUHU216HW,2013-02-11 18:50:00,
2013-02-11 10:55:00,58.0,37.3,30.18,NW,315,1.6,2.7,46,0.00,,,0.00,WUHU216HW,2013-02-11 18:55:00,
2013-02-11 11:00:00,56.0,35.9,30.18,NNE,23,0.4,2.5,47,0.00,,,0.00,WUHU216HW,2013-02-11 19:00:00,
2013-02-11 11:05:00,56.0,36.5,30.18,NE,45,0.9,2.0,48,0.00,,,0.00,WUHU216HW,2013-02-11 19:05:00,
2013-02-11 11:10:00,57.8,37.6,30.18,ENE,68,0.4,1.8,47,0.00,,,0.00,WUHU216HW,2013-02-11 19:10:00,
2013-02-11 11:15:00,56.5,35.9,30.17,NNE,23,1.3,2.0,46,0.00,,,0.00,WUHU216HW,2013-02-11 19:15:00,
2013-02-11 11:20:00,58.0,37.8,30.18,SW,225,2.2,2.2,47,0.00,,,0.00,WUHU216HW,2013-02-11 19:20:00,
2013-02-11 11:25:00,59.8,38.3,30.17,SE,135,0.4,2.2,45,0.00,,,0.00,WUHU216HW,2013-02-11 19:25:00,
2013-02-11 11:30:00,60.1,38.6,30.17,ESE,113,0.9,2.9,45,0.00,,,0.00,WUHU216HW,2013-02-11 19:30:00,
2013-02-11 11:35:00,59.4,36.8,30.17,NW,315,0.7,2.9,43,0.00,,,0.00,WUHU216HW,2013-02-11 19:35:00,
2013-02-11 11:40:00,59.4,32.9,30.17,NW,315,1.1,2.9,37,0.00,,,0.00,WUHU216HW,2013-02-11 19:40:00,
2013-02-11 11:45:00,59.0,32.7,30.17,North,0,1.8,2.9,37,0.00,,,0.00,WUHU216HW,2013-02-11 19:45:00,
2013-02-11 11:50:00,59.0,33.3,30.16,NW,315,0.7,2.7,38,0.00,,,0.00,WUHU216HW,2013-02-11 19:50:00,
2013-02-11 11:55:00,60.5,31.1,30.16,NNW,338,1.6,2.5,33,0.00,,,0.00,WUHU216HW,2013-02-11 19:55:00,
2013-02-11 12:00:00,61.0,31.5,30.16,NNE,23,0.4,4.5,33,0.00,,,0.00,WUHU216HW,2013-02-11 20:00:00,
2013-02-11 12:05:00,61.4,29.6,30.16,NNW,338,3.4,4.7,30,0.00,,,0.00,WUHU216HW,2013-02-11 20:05:00,
2013-02-11 12:10:00,61.0,30.1,30.16,NW,315,1.8,4.7,31,0.00,,,0.00,WUHU216HW,2013-02-11 20:10:00,
2013-02-11 12:15:00,62.5,28.7,30.15,NNW,338,2.0,5.4,28,0.00,,,0.00,WUHU216HW,2013-02-11 20:15:00,
2013-02-11 12:20:00,63.0,29.2,30.15,NW,315,4.7,5.6,28,0.00,,,0.00,WUHU216HW,2013-02-11 20:20:00,
2013-02-11 12:25:00,62.6,28.8,30.15,NW,315,2.7,5.6,28,0.00,,,0.00,WUHU216HW,2013-02-11 20:25:00,
2013-02-11 12:30:00,62.6,28.8,30.14,NW,315,3.4,5.8,28,0.00,,,0.00,WUHU216HW,2013-02-11 20:30:00,
2013-02-11 12:35:00,63.4,29.4,30.14,NNW,338,2.9,7.6,28,0.00,,,0.00,WUHU216HW,2013-02-11 20:35:00,
2013-02-11 12:40:00,64.1,30.1,30.14,NNE,23,5.1,7.6,28,0.00,,,0.00,WUHU216HW,2013-02-11 20:40:00,
2013-02-11 12:45:00,63.9,31.0,30.14,WNW,293,6.0,6.9,29,0.00,,,0.00,WUHU216HW,2013-02-11 20:45:00,
2013-02-11 12:50:00,63.4,30.4,30.14,WSW,248,4.0,6.9,29,0.00,,,0.00,WUHU216HW,2013-02-11 20:50:00,
2013-02-11 12:55:00,63.7,31.8,30.14,West,270,4.7,6.9,30,0.00,,,0.00,WUHU216HW,2013-02-11 20:55:00,
2013-02-11 13:00:00,63.7,30.8,30.14,NNW,338,5.4,6.5,29,0.00,,,0.00,WUHU216HW,2013-02-11 21:00:00,
2013-02-11 13:05:00,63.9,31.0,30.14,NW,315,6.3,9.2,29,0.00,,,0.00,WUHU216HW,2013-02-11 21:05:00,
2013-02-11 13:10:00,63.7,30.8,30.14,WNW,293,3.4,9.2,29,0.00,,,0.00,WUHU216HW,2013-02-11 21:10:00,
2013-02-11 13:15:00,63.9,29.0,30.13,NW,315,7.2,8.7,27,0.00,,,0.00,WUHU216HW,2013-02-11 21:15:00,
2013-02-11 13:20:00,62.5,28.7,30.13,North,0,4.5,8.7,28,0.00,,,0.00,WUHU216HW,2013-02-11 21:20:00,
2013-02-11 13:25:00,63.0,26.2,30.13,NW,315,4.7,8.5,25,0.00,,,0.00,WUHU216HW,2013-02-11 21:25:00,
2013-02-11 13:30:00,62.6,25.9,30.13,West,270,5.4,8.5,25,0.00,,,0.00,WUHU216HW,2013-02-11 21:30:00,
2013-02-11 13:35:00,63.2,27.4,30.13,NNW,338,2.5,7.6,26,0.00,,,0.00,WUHU216HW,2013-02-11 21:35:00,
2013-02-11 13:40:00,63.2,26.4,30.12,WNW,293,4.3,7.6,25,0.00,,,0.00,WUHU216HW,2013-02-11 21:40:00,
2013-02-11 13:45:00,63.0,27.2,30.12,NNW,338,5.1,7.6,26,0.00,,,0.00,WUHU216HW,2013-02-11 21:45:00,
2013-02-11 13:50:00,63.2,27.4,30.13,NW,315,3.8,8.3,26,0.00,,,0.00,WUHU216HW,2013-02-11 21:50:00,
2013-02-11 13:55:00,63.0,26.2,30.13,North,0,6.9,9.6,25,0.00,,,0.00,WUHU216HW,2013-02-11 21:55:00,
2013-02-11 14:00:00,63.4,27.6,30.12,North,0,4.9,9.6,26,0.00,,,0.00,WUHU216HW,2013-02-11 22:00:00,
2013-02-11 14:05:00,63.7,26.8,30.12,NNW,338,6.0,9.6,25,0.00,,,0.00,WUHU216HW,2013-02-11 22:05:00,
2013-02-11 14:10:00,63.5,28.6,30.12,NNW,338,5.4,9.6,27,0.00,,,0.00,WUHU216HW,2013-02-11 22:10:00,
2013-02-11 14:15:00,63.4,28.5,30.13,NW,315,3.8,8.3,27,0.00,,,0.00,WUHU216HW,2013-02-11 22:15:00,
2013-02-11 14:20:00,63.5,26.7,30.13,NW,315,4.9,8.3,25,0.00,,,0.00,WUHU216HW,2013-02-11 22:20:00,
2013-02-11 14:25:00,63.7,28.8,30.12,WNW,293,6.3,6.3,27,0.00,,,0.00,WUHU216HW,2013-02-11 22:25:00,
2013-02-11 14:30:00,63.4,28.5,30.12,WNW,293,6.9,7.6,27,0.00,,,0.00,WUHU216HW,2013-02-11 22:30:00,
2013-02-11 14:35:00,63.4,27.6,30.12,WNW,293,1.1,7.6,26,0.00,,,0.00,WUHU216HW,2013-02-11 22:35:00,
2013-02-11 14:40:00,63.7,29.8,30.12,NNW,338,0.7,7.6,28,0.00,,,0.00,WUHU216HW,2013-02-11 22:40:00,
2013-02-11 14:45:00,63.4,29.4,30.12,NW,315,0.7,5.6,28,0.00,,,0.00,WUHU216HW,2013-02-11 22:45:00,
2013-02-11 14:50:00,64.4,30.4,30.12,North,0,4.0,6.5,28,0.00,,,0.00,WUHU216HW,2013-02-11 22:50:00,
2013-02-11 14:55:00,65.2,29.1,30.12,SW,225,3.6,6.5,26,0.00,,,0.00,WUHU216HW,2013-02-11 22:55:00,
2013-02-11 15:00:00,64.8,30.8,30.12,NNE,23,1.6,5.8,28,0.00,,,0.00,WUHU216HW,2013-02-11 23:00:00,
2013-02-11 15:05:00,64.3,28.3,30.12,NW,315,3.4,6.7,26,0.00,,,0.00,WUHU216HW,2013-02-11 23:05:00,
2013-02-11 15:10:00,64.3,28.3,30.13,North,0,4.5,6.7,26,0.00,,,0.00,WUHU216HW,2013-02-11 23:10:00,
2013-02-11 15:15:00,64.3,28.3,30.13,NW,315,4.7,5.4,26,0.00,,,0.00,WUHU216HW,2013-02-11 23:15:00,
2013-02-11 15:20:00,63.7,26.8,30.13,NW,315,1.8,5.4,25,0.00,,,0.00,WUHU216HW,2013-02-11 23:20:00,
2013-02-11 15:25:00,63.9,27.0,30.13,WNW,293,3.4,4.9,25,0.00,,,0.00,WUHU216HW,2013-02-11 23:25:00,
2013-02-11 15:30:00,64.4,27.5,30.13,NNE,23,2.5,5.6,25,0.00,,,0.00,WUHU216HW,2013-02-11 23:30:00,
2013-02-11 15:35:00,64.4,26.5,30.13,NNW,338,2.5,5.6,24,0.00,,,0.00,WUHU216HW,2013-02-11 23:35:00,
2013-02-11 15:40:00,64.4,26.5,30.13,North,0,1.8,5.4,24,0.00,,,0.00,WUHU216HW,2013-02-11 23:40:00,
2013-02-11 15:45:00,64.3,27.3,30.13,NE,45,1.1,4.7,25,0.00,,,0.00,WUHU216HW,2013-02-11 23:45:00,
2013-02-11 15:50:00,64.1,27.2,30.13,WNW,293,2.9,3.4,25,0.00,,,0.00,WUHU216HW,2013-02-11 23:50:00,
2013-02-11 15:55:00,63.5,26.7,30.14,NW,315,1.8,3.4,25,0.00,,,0.00,WUHU216HW,2013-02-11 23:55:00,
2013-02-11 16:00:00,63.2,26.4,30.13,North,0,0.7,3.4,25,0.00,,,0.00,WUHU216HW,2013-02-12 00:00:00,
2013-02-11 16:05:00,63.2,26.4,30.13,North,0,1.8,4.3,25,0.00,,,0.00,WUHU216HW,2013-02-12 00:05:00,
2013-02-11 16:10:00,63.0,28.2,30.13,NNW,338,0.9,4.3,27,0.00,,,0.00,WUHU216HW,2013-02-12 00:10:00,
2013-02-11 16:15:00,63.2,28.4,30.13,NW,315,4.0,4.7,27,0.00,,,0.00,WUHU216HW,2013-02-12 00:15:00,
2013-02-11 16:20:00,63.4,28.5,30.13,NNW,338,2.0,4.7,27,0.00,,,0.00,WUHU216HW,2013-02-12 00:20:00,
2013-02-11 16:25:00,63.5,29.6,30.13,WNW,293,1.8,3.1,28,0.00,,,0.00,WUHU216HW,2013-02-12 00:25:00,
2013-02-11 16:30:00,63.4,29.4,30.13,NW,315,4.5,4.5,28,0.00,,,0.00,WUHU216HW,2013-02-12 00:30:00,
2013-02-11 16:35:00,64.3,30.2,30.13,NNW,338,1.1,4.5,28,0.00,,,0.00,WUHU216HW,2013-02-12 00:35:00,
2013-02-11 16:40:00,63.9,29.0,30.13,NW,315,2.2,4.5,27,0.00,,,0.00,WUHU216HW,2013-02-12 00:40:00,
2013-02-11 16:45:00,63.5,28.6,30.13,North,0,0.2,4.0,27,0.00,,,0.00,WUHU216HW,2013-02-12 00:45:00,
2013-02-11 16:50:00,63.4,29.4,30.13,NNE,23,0.4,2.2,28,0.00,,,0.00,WUHU216HW,2013-02-12 00:50:00,
2013-02-11 16:55:00,63.0,29.2,30.13,North,0,0.4,1.6,28,0.00,,,0.00,WUHU216HW,2013-02-12 00:55:00,
2013-02-11 17:00:00,62.6,29.8,30.13,North,0,0.4,1.8,29,0.00,,,0.00,WUHU216HW,2013-02-12 01:00:00,
2013-02-11 17:05:00,62.8,30.0,30.13,North,0,0.4,1.8,29,0.00,,,0.00,WUHU216HW,2013-02-12 01:05:00,
2013-02-11 17:10:00,63.0,29.2,30.14,NW,315,2.5,2.5,28,0.00,,,0.00,WUHU216HW,2013-02-12 01:10:00,
2013-02-11 17:15:00,62.6,29.8,30.14,NNW,338,2.7,3.1,29,0.00,,,0.00,WUHU216HW,2013-02-12 01:15:00,
2013-02-11 17:20:00,61.9,29.2,30.14,NW,315,1.1,3.1,29,0.00,,,0.00,WUHU216HW,2013-02-12 01:20:00,
2013-02-11 17:25:00,61.6,28.9,30.14,NNW,338,2.2,4.0,29,0.00,,,0.00,WUHU216HW,2013-02-12 01:25:00,
2013-02-11 17:30:00,61.6,29.8,30.14,NNW,338,1.6,4.0,30,0.00,,,0.00,WUHU216HW,2013-02-12 01:30:00,
2013-02-11 17:35:00,61.0,29.4,30.14,NNW,338,0.7,3.4,30,0.00,,,0.00,WUHU216HW,2013-02-12 01:35:00,
2013-02-11 17:41:00,60.7,29.7,30.15,NNW,338,0.0,2.5,31,0.00,,,0.00,WUHU216HW,2013-02-12 01:41:00,
2013-02-11 17:46:00,60.1,30.0,30.15,North,0,1.1,2.2,32,0.00,,,0.00,WUHU216HW,2013-02-12 01:46:00,
2013-02-11 17:51:00,59.9,30.6,30.15,North,0,1.1,2.2,33,0.00,,,0.00,WUHU216HW,2013-02-12 01:51:00,
2013-02-11 17:56:00,59.9,30.6,30.16,NNW,338,0.7,2.9,33,0.00,,,0.00,WUHU216HW,2013-02-12 01:56:00,
2013-02-11 18:01:00,59.6,31.0,30.16,NNW,338,1.3,2.9,34,0.00,,,0.00,WUHU216HW,2013-02-12 02:01:00,
2013-02-11 18:06:00,59.2,30.7,30.16,North,0,1.1,2.2,34,0.00,,,0.00,WUHU216HW,2013-02-12 02:06:00,
2013-02-11 18:11:00,59.0,30.5,30.16,NNW,338,1.3,2.5,34,0.00,,,0.00,WUHU216HW,2013-02-12 02:11:00,
2013-02-11 18:16:00,58.7,31.6,30.17,NNW,338,0.4,2.5,36,0.00,,,0.00,WUHU216HW,2013-02-12 02:16:00,
2013-02-11 18:21:00,58.3,32.7,30.16,NNW,338,0.7,2.0,38,0.00,,,0.00,WUHU216HW,2013-02-12 02:21:00,
2013-02-11 18:26:00,58.0,33.0,30.17,NNW,338,0.4,1.8,39,0.00,,,0.00,WUHU216HW,2013-02-12 02:26:00,
2013-02-11 18:31:00,58.0,34.4,30.17,North,0,2.0,2.9,41,0.00,,,0.00,WUHU216HW,2013-02-12 02:31:00,
2013-02-11 18:36:00,58.0,34.9,30.17,NNW,338,1.8,3.4,42,0.00,,,0.00,WUHU216HW,2013-02-12 02:36:00,
2013-02-11 18:41:00,57.4,35.0,30.17,NNW,338,0.4,3.4,43,0.00,,,0.00,WUHU216HW,2013-02-12 02:41:00,
2013-02-11 18:46:00,56.9,35.1,30.17,NNW,338,0.2,1.1,44,0.00,,,0.00,WUHU216HW,2013-02-12 02:46:00,
2013-02-11 18:51:00,56.5,34.7,30.17,NNW,338,0.0,1.1,44,0.00,,,0.00,WUHU216HW,2013-02-12 02:51:00,
2013-02-11 18:56:00,56.0,34.2,30.17,NE,45,0.4,1.8,44,0.00,,,0.00,WUHU216HW,2013-02-12 02:56:00,
2013-02-11 19:01:00,55.1,33.4,30.17,NE,45,0.4,1.8,44,0.00,,,0.00,WUHU216HW,2013-02-12 03:01:00,
2013-02-11 19:06:00,54.7,33.7,30.17,NE,45,1.1,1.3,45,0.00,,,0.00,WUHU216HW,2013-02-12 03:06:00,
2013-02-11 19:11:00,54.7,33.7,30.18,NE,45,0.0,1.6,45,0.00,,,0.00,WUHU216HW,2013-02-12 03:11:00,
2013-02-11 19:16:00,54.5,33.5,30.18,NE,45,0.0,1.6,45,0.00,,,0.00,WUHU216HW,2013-02-12 03:16:00,
2013-02-11 19:21:00,54.2,33.8,30.19,NE,45,0.7,0.7,46,0.00,,,0.00,WUHU216HW,2013-02-12 03:21:00,
2013-02-11 19:26:00,53.8,33.4,30.19,NE,45,0.0,0.9,46,0.00,,,0.00,WUHU216HW,2013-02-12 03:26:00,
2013-02-11 19:31:00,53.5,33.0,30.19,ENE,68,0.7,0.9,46,0.00,,,0.00,WUHU216HW,2013-02-12 03:31:00,
2013-02-11 19:36:00,53.1,33.3,30.19,ENE,68,0.4,0.9,47,0.00,,,0.00,WUHU216HW,2013-02-12 03:36:00,
2013-02-11 19:41:00,52.7,34.1,30.19,North,0,0.2,0.9,49,0.00,,,0.00,WUHU216HW,2013-02-12 03:41:00,
2013-02-11 19:46:00,52.6,32.9,30.19,North,0,0.2,0.4,47,0.00,,,0.00,WUHU216HW,2013-02-12 03:46:00,
2013-02-11 19:51:00,52.4,32.7,30.19,NNE,23,1.1,1.1,47,0.00,,,0.00,WUHU216HW,2013-02-12 03:51:00,
2013-02-11 19:56:00,51.7,33.1,30.19,NNE,23,0.4,1.1,49,0.00,,,0.00,WUHU216HW,2013-02-12 03:56:00,
2013-02-11 20:01:00,51.1,32.7,30.19,NE,45,0.4,1.1,49,0.00,,,0.00,WUHU216HW,2013-02-12 04:01:00,
2013-02-11 20:06:00,50.8,32.3,30.19,NE,45,0.9,0.9,49,0.00,,,0.00,WUHU216HW,2013-02-12 04:06:00,
2013-02-11 20:11:00,50.0,32.7,30.19,ENE,68,0.9,0.9,51,0.00,,,0.00,WUHU216HW,2013-02-12 04:11:00,
2013-02-11 20:16:00,49.5,33.5,30.19,ENE,68,1.1,1.1,54,0.00,,,0.00,WUHU216HW,2013-02-12 04:16:00,
2013-02-11 20:21:00,49.1,33.7,30.19,ENE,68,1.1,1.3,55,0.00,,,0.00,WUHU216HW,2013-02-12 04:21:00,
2013-02-11 20:26:00,48.6,33.1,30.19,ENE,68,0.9,1.3,55,0.00,,,0.00,WUHU216HW,2013-02-12 04:26:00,
2013-02-11 20:31:00,48.6,33.6,30.20,ENE,68,0.4,1.1,56,0.00,,,0.00,WUHU216HW,2013-02-12 04:31:00,
2013-02-11 20:36:00,48.4,33.8,30.20,ENE,68,0.9,1.1,57,0.00,,,0.00,WUHU216HW,2013-02-12 04:36:00,
2013-02-11 20:41:00,48.2,34.2,30.20,ENE,68,0.9,1.1,58,0.00,,,0.00,WUHU216HW,2013-02-12 04:41:00,
2013-02-11 20:46:00,48.1,34.0,30.20,ENE,68,0.0,1.1,58,0.00,,,0.00,WUHU216HW,2013-02-12 04:46:00,
2013-02-11 20:51:00,47.9,33.4,30.20,ENE,68,0.0,1.1,57,0.00,,,0.00,WUHU216HW,2013-02-12 04:51:00,
2013-02-11 20:56:00,47.5,33.9,30.21,ENE,68,1.1,1.1,59,0.00,,,0.00,WUHU216HW,2013-02-12 04:56:00,
2013-02-11 21:01:00,47.3,33.3,30.21,East,90,0.0,1.1,58,0.00,,,0.00,WUHU216HW,2013-02-12 05:01:00,
2013-02-11 21:06:00,47.0,32.5,30.21,East,90,0.4,1.1,57,0.00,,,0.00,WUHU216HW,2013-02-12 05:06:00,
2013-02-11 21:11:00,46.8,33.7,30.21,ENE,68,1.1,1.6,60,0.00,,,0.00,WUHU216HW,2013-02-12 05:11:00,
2013-02-11 21:16:00,46.8,33.7,30.21,East,90,0.4,1.6,60,0.00,,,0.00,WUHU216HW,2013-02-12 05:16:00,
2013-02-11 21:21:00,46.4,33.7,30.21,East,90,0.2,1.3,61,0.00,,,0.00,WUHU216HW,2013-02-12 05:21:00,
2013-02-11 21:26:00,46.3,34.3,30.21,East,90,0.4,1.1,63,0.00,,,0.00,WUHU216HW,2013-02-12 05:26:00,
2013-02-11 21:31:00,46.1,34.1,30.21,East,90,0.4,0.9,63,0.00,,,0.00,WUHU216HW,2013-02-12 05:31:00,
2013-02-11 21:36:00,45.9,34.4,30.21,East,90,0.2,1.1,64,0.00,,,0.00,WUHU216HW,2013-02-12 05:36:00,
2013-02-11 21:41:00,45.9,34.7,30.21,ESE,113,0.4,1.1,65,0.00,,,0.00,WUHU216HW,2013-02-12 05:41:00,
2013-02-11 21:46:00,45.7,34.6,30.21,East,90,1.3,1.3,65,0.00,,,0.00,WUHU216HW,2013-02-12 05:46:00,
2013-02-11 21:51:00,45.7,35.0,30.21,East,90,1.1,1.8,66,0.00,,,0.00,WUHU216HW,2013-02-12 05:51:00,
2013-02-11 21:56:00,45.7,34.6,30.21,East,90,1.1,1.8,65,0.00,,,0.00,WUHU216HW,2013-02-12 05:56:00,
2013-02-11 22:01:00,45.7,34.2,30.21,East,90,0.7,1.8,64,0.00,,,0.00,WUHU216HW,2013-02-12 06:01:00,
2013-02-11 22:06:00,45.4,33.8,30.21,East,90,1.1,1.3,64,0.00,,,0.00,WUHU216HW,2013-02-12 06:06:00,
2013-02-11 22:11:00,45.0,33.6,30.21,East,90,0.9,1.3,64,0.00,,,0.00,WUHU216HW,2013-02-12 06:11:00,
2013-02-11 22:16:00,44.8,33.4,30.22,East,90,0.7,1.1,64,0.00,,,0.00,WUHU216HW,2013-02-12 06:16:00,
2013-02-11 22:21:00,44.6,33.2,30.21,East,90,0.7,1.1,64,0.00,,,0.00,WUHU216HW,2013-02-12 06:21:00,
2013-02-11 22:26:00,44.6,33.9,30.21,East,90,1.1,1.6,66,0.00,,,0.00,WUHU216HW,2013-02-12 06:26:00,
2013-02-11 22:31:00,44.8,33.8,30.21,SE,135,2.2,2.2,65,0.00,,,0.00,WUHU216HW,2013-02-12 06:31:00,
2013-02-11 22:37:00,44.6,33.6,30.22,ESE,113,0.7,2.2,65,0.00,,,0.00,WUHU216HW,2013-02-12 06:37:00,
2013-02-11 22:42:00,44.5,33.4,30.21,ESE,113,0.2,1.8,65,0.00,,,0.00,WUHU216HW,2013-02-12 06:42:00,
2013-02-11 22:47:00,44.1,33.9,30.22,ESE,113,0.0,0.7,67,0.00,,,0.00,WUHU216HW,2013-02-12 06:47:00,
2013-02-11 22:52:00,44.1,34.6,30.22,ESE,113,0.9,0.9,69,0.00,,,0.00,WUHU216HW,2013-02-12 06:52:00,
2013-02-11 22:57:00,44.3,34.7,30.22,ESE,113,0.2,0.9,69,0.00,,,0.00,WUHU216HW,2013-02-12 06:57:00,
2013-02-11 23:02:00,44.1,34.2,30.21,ESE,113,0.4,0.9,68,0.00,,,0.00,WUHU216HW,2013-02-12 07:02:00,
2013-02-11 23:07:00,43.7,34.3,30.21,ESE,113,0.4,0.9,69,0.00,,,0.00,WUHU216HW,2013-02-12 07:07:00,
2013-02-11 23:12:00,43.6,34.1,30.22,ESE,113,0.0,0.9,69,0.00,,,0.00,WUHU216HW,2013-02-12 07:12:00,
2013-02-11 23:17:00,43.6,34.1,30.21,ESE,113,0.7,0.9,69,0.00,,,0.00,WUHU216HW,2013-02-12 07:17:00,
2013-02-11 23:22:00,43.7,33.8,30.21,ESE,113,0.0,0.9,68,0.00,,,0.00,WUHU216HW,2013-02-12 07:22:00,
2013-02-11 23:27:00,43.6,34.1,30.22,East,90,0.7,1.1,69,0.00,,,0.00,WUHU216HW,2013-02-12 07:27:00,
2013-02-11 23:32:00,43.2,33.8,30.22,East,90,0.0,1.1,69,0.00,,,0.00,WUHU216HW,2013-02-12 07:32:00,
2013-02-11 23:37:00,43.2,33.8,30.22,ESE,113,0.0,1.1,69,0.00,,,0.00,WUHU216HW,2013-02-12 07:37:00,
2013-02-11 23:42:00,43.2,33.8,30.22,ESE,113,0.0,1.1,69,0.00,,,0.00,WUHU216HW,2013-02-12 07:42:00,
2013-02-11 23:47:00,43.0,33.2,30.22,ESE,113,0.0,0.0,68,0.00,,,0.00,WUHU216HW,2013-02-12 07:47:00,
2013-02-11 23:52:00,42.8,33.0,30.22,ESE,113,0.0,0.2,68,0.00,,,0.00,WUHU216HW,2013-02-12 07:52:00,
2013-02-11 23:57:00,42.7,33.3,30.22,ESE,113,0.9,0.9,69,0.00,,,0.00,WUHU216HW,2013-02-12 07:57:00,